Friday, November 15, 2019, 5:56 AM EST
Back to Local

KIPT, Williamsport-lycoming County

Location: Montoursville, PA, United States Lat: 41.25
Local Time: 5:56 AM EST (10:56 GMT) Lon: -76.917
Time Zone: US/Eastern Elev: 528 ft

Show me the last for .
Show Decoded

2019-11-15 04:54 METAR KIPT 150954Z AUTO 00000KT 10SM CLR M06/M07 A3023 RMK AO2 SLP244 T10561072
                 =
2019-11-15 03:54 METAR KIPT 150854Z AUTO 00000KT 10SM CLR M04/M07 A3023 RMK AO2 SLP243 T10441067
                 55003 =
2019-11-15 02:54 METAR KIPT 150754Z AUTO 00000KT 10SM CLR M04/M07 A3022 RMK AO2 SLP240 T10441067
                 =
2019-11-15 01:54 METAR KIPT 150654Z AUTO 00000KT 10SM CLR M04/M07 A3023 RMK AO2 SLP244 T10441072
                 =
2019-11-15 00:54 METAR KIPT 150554Z AUTO 00000KT 10SM CLR M03/M06 A3024 RMK AO2 SLP246 T10281061
                 10033 21039 58008 =
2019-11-14 23:54 METAR KIPT 150454Z AUTO 00000KT 10SM CLR M03/M07 A3025 RMK AO2 SLP251 T10281067
                 400391033 =
2019-11-14 22:54 METAR KIPT 150354Z AUTO 00000KT 10SM CLR M03/M07 A3027 RMK AO2 SLP258 T10281067
                 =
2019-11-14 21:54 METAR KIPT 150254Z 00000KT 10SM CLR M02/M06 A3027 RMK AO2 SLP255 T10171061 50003
                 =
2019-11-14 20:54 METAR KIPT 150154Z 00000KT 10SM SCT080 M01/M07 A3027 RMK AO2 SLP256 T10061067 =
2019-11-14 19:54 METAR KIPT 150054Z 35003KT 10SM BKN080 01/M07 A3026 RMK AO2 SLP252 T00111067 =
2019-11-14 18:54 METAR KIPT 142354Z 00000KT 10SM BKN120 03/M08 A3026 RMK AO2 SLP251 T00281083
                 10039 20017 53003 =
2019-11-14 17:54 METAR KIPT 142254Z 00000KT 10SM OVC100 04/M09 A3025 RMK AO2 SLP250 T00391089 =
2019-11-14 16:54 METAR KIPT 142154Z VRB03KT 10SM CLR 03/M09 A3024 RMK AO2 SLP247 T00331089 =
2019-11-14 15:54 METAR KIPT 142054Z 13007KT 10SM SCT110 03/M09 A3025 RMK AO2 SLP248 T00331089
                 55008 =
2019-11-14 14:54 METAR KIPT 141954Z VRB03G16KT 10SM CLR 03/M09 A3024 RMK AO2 SLP246 T00331089 =
2019-11-14 13:54 METAR KIPT 141854Z VRB06KT 10SM CLR 03/M09 A3026 RMK AO2 SLP252 T00281089 =
2019-11-14 12:54 METAR KIPT 141754Z 13009KT 10SM BKN085 OVC100 02/M09 A3027 RMK AO2 SLP257
                 T00171089 10017 21017 58016 =
2019-11-14 11:54 METAR KIPT 141654Z 02005KT 10SM OVC090 01/M10 A3030 RMK AO2 SLP265 T00061100 =
2019-11-14 10:54 METAR KIPT 141554Z VRB06KT 10SM OVC110 00/M10 A3030 RMK AO2 SLP268 T00001100 =
2019-11-14 09:54 METAR KIPT 141454Z 06007KT 020V120 10SM BKN100 M01/M10 A3032 RMK AO2 SLP273
                 T10061100 50003 =
2019-11-14 08:54 METAR KIPT 141354Z VRB06KT 10SM BKN110 M01/M10 A3032 RMK AO2 SLP275 T10111100 =
2019-11-14 07:54 METAR KIPT 141254Z 13008G18KT 10SM CLR M02/M09 A3031 RMK AO2 SLP272 T10171094 =
2019-11-14 06:54 METAR KIPT 141154Z 13010G21KT 100V160 10SM CLR M02/M09 A3031 RMK AO2 SLP271
                 T10171094 11017 21028 57001 =

Support USWX by starting your Amazon purchase here.